sensor_id;sensor_type;location;lat;lon;timestamp;P1;durP1;ratioP1;P2;durP2;ratioP2
17153;SDS011;8692;52.164;7.558;2023-04-25T00:00:06;6.40;;;3.33;;
17153;SDS011;8692;52.164;7.558;2023-04-25T00:02:38;7.27;;;3.07;;
17153;SDS011;8692;52.164;7.558;2023-04-25T00:05:07;6.07;;;3.10;;
17153;SDS011;8692;52.164;7.558;2023-04-25T00:07:38;8.77;;;3.57;;
17153;SDS011;8692;52.164;7.558;2023-04-25T00:10:12;11.20;;;2.93;;
17153;SDS011;8692;52.164;7.558;2023-04-25T00:12:40;6.63;;;2.60;;
17153;SDS011;8692;52.164;7.558;2023-04-25T00:15:09;4.23;;;2.57;;
17153;SDS011;8692;52.164;7.558;2023-04-25T00:17:40;6.70;;;3.03;;
17153;SDS011;8692;52.164;7.558;2023-04-25T00:20:09;5.63;;;2.93;;
17153;SDS011;8692;52.164;7.558;2023-04-25T00:22:41;5.07;;;3.00;;
17153;SDS011;8692;52.164;7.558;2023-04-25T00:25:11;6.37;;;2.47;;
17153;SDS011;8692;52.164;7.558;2023-04-25T00:27:42;3.63;;;2.60;;
17153;SDS011;8692;52.164;7.558;2023-04-25T00:30:12;6.87;;;2.93;;
17153;SDS011;8692;52.164;7.558;2023-04-25T00:32:41;6.53;;;3.43;;
17153;SDS011;8692;52.164;7.558;2023-04-25T00:35:09;4.13;;;2.60;;
17153;SDS011;8692;52.164;7.558;2023-04-25T00:37:38;6.10;;;2.50;;
17153;SDS011;8692;52.164;7.558;2023-04-25T00:40:06;4.77;;;2.80;;
17153;SDS011;8692;52.164;7.558;2023-04-25T00:42:37;6.17;;;3.07;;
17153;SDS011;8692;52.164;7.558;2023-04-25T00:45:06;5.10;;;3.13;;
17153;SDS011;8692;52.164;7.558;2023-04-25T00:47:36;4.47;;;2.80;;
17153;SDS011;8692;52.164;7.558;2023-04-25T00:50:06;6.70;;;3.00;;
17153;SDS011;8692;52.164;7.558;2023-04-25T00:52:37;10.33;;;2.80;;
17153;SDS011;8692;52.164;7.558;2023-04-25T00:55:10;7.27;;;2.80;;
17153;SDS011;8692;52.164;7.558;2023-04-25T00:57:41;6.70;;;3.60;;
17153;SDS011;8692;52.164;7.558;2023-04-25T01:00:10;7.33;;;2.97;;
17153;SDS011;8692;52.164;7.558;2023-04-25T01:02:40;7.33;;;2.67;;
17153;SDS011;8692;52.164;7.558;2023-04-25T01:05:12;8.83;;;2.80;;
17153;SDS011;8692;52.164;7.558;2023-04-25T01:07:43;5.10;;;3.30;;
17153;SDS011;8692;52.164;7.558;2023-04-25T01:10:14;11.80;;;2.90;;
17153;SDS011;8692;52.164;7.558;2023-04-25T01:12:44;5.73;;;2.70;;
17153;SDS011;8692;52.164;7.558;2023-04-25T01:15:14;13.10;;;3.40;;
17153;SDS011;8692;52.164;7.558;2023-04-25T01:17:43;13.30;;;3.87;;
17153;SDS011;8692;52.164;7.558;2023-04-25T01:20:11;9.37;;;2.63;;
17153;SDS011;8692;52.164;7.558;2023-04-25T01:22:42;14.33;;;3.83;;
17153;SDS011;8692;52.164;7.558;2023-04-25T01:25:13;13.77;;;3.50;;
17153;SDS011;8692;52.164;7.558;2023-04-25T01:27:43;7.20;;;4.13;;
17153;SDS011;8692;52.164;7.558;2023-04-25T01:30:12;10.63;;;3.03;;
17153;SDS011;8692;52.164;7.558;2023-04-25T01:32:41;11.20;;;3.20;;
17153;SDS011;8692;52.164;7.558;2023-04-25T01:35:13;7.67;;;2.97;;
17153;SDS011;8692;52.164;7.558;2023-04-25T01:37:44;12.30;;;3.47;;
17153;SDS011;8692;52.164;7.558;2023-04-25T01:40:13;15.10;;;3.93;;
17153;SDS011;8692;52.164;7.558;2023-04-25T01:42:42;11.37;;;3.17;;
17153;SDS011;8692;52.164;7.558;2023-04-25T01:45:12;9.27;;;3.40;;
17153;SDS011;8692;52.164;7.558;2023-04-25T01:47:40;9.30;;;3.00;;
17153;SDS011;8692;52.164;7.558;2023-04-25T01:50:10;14.87;;;4.33;;
17153;SDS011;8692;52.164;7.558;2023-04-25T01:52:39;16.90;;;3.20;;
17153;SDS011;8692;52.164;7.558;2023-04-25T01:55:09;8.00;;;3.03;;
17153;SDS011;8692;52.164;7.558;2023-04-25T01:57:47;18.83;;;4.23;;
17153;SDS011;8692;52.164;7.558;2023-04-25T02:00:19;9.40;;;2.50;;
17153;SDS011;8692;52.164;7.558;2023-04-25T02:02:48;16.17;;;5.00;;
17153;SDS011;8692;52.164;7.558;2023-04-25T02:05:28;10.00;;;3.43;;
17153;SDS011;8692;52.164;7.558;2023-04-25T02:07:59;9.83;;;3.27;;
17153;SDS011;8692;52.164;7.558;2023-04-25T02:10:29;12.70;;;3.60;;
17153;SDS011;8692;52.164;7.558;2023-04-25T02:13:16;10.00;;;3.13;;
17153;SDS011;8692;52.164;7.558;2023-04-25T02:16:13;9.53;;;3.33;;
17153;SDS011;8692;52.164;7.558;2023-04-25T02:18:45;14.20;;;3.77;;
17153;SDS011;8692;52.164;7.558;2023-04-25T02:21:15;9.73;;;2.90;;
17153;SDS011;8692;52.164;7.558;2023-04-25T02:23:44;10.27;;;2.87;;
17153;SDS011;8692;52.164;7.558;2023-04-25T02:26:19;12.67;;;3.47;;
17153;SDS011;8692;52.164;7.558;2023-04-25T02:28:50;10.53;;;3.10;;
17153;SDS011;8692;52.164;7.558;2023-04-25T02:31:21;13.87;;;3.60;;
17153;SDS011;8692;52.164;7.558;2023-04-25T02:33:51;14.87;;;4.00;;
17153;SDS011;8692;52.164;7.558;2023-04-25T02:36:19;12.57;;;3.07;;
17153;SDS011;8692;52.164;7.558;2023-04-25T02:38:50;14.17;;;3.83;;
17153;SDS011;8692;52.164;7.558;2023-04-25T02:41:23;17.93;;;3.53;;
17153;SDS011;8692;52.164;7.558;2023-04-25T02:43:53;12.93;;;3.00;;
17153;SDS011;8692;52.164;7.558;2023-04-25T02:46:22;15.23;;;3.67;;
17153;SDS011;8692;52.164;7.558;2023-04-25T02:49:07;12.00;;;3.87;;
17153;SDS011;8692;52.164;7.558;2023-04-25T02:51:35;16.13;;;4.13;;
17153;SDS011;8692;52.164;7.558;2023-04-25T02:54:04;14.70;;;4.03;;
17153;SDS011;8692;52.164;7.558;2023-04-25T02:56:38;8.97;;;3.17;;
17153;SDS011;8692;52.164;7.558;2023-04-25T02:59:12;9.20;;;3.17;;
17153;SDS011;8692;52.164;7.558;2023-04-25T03:01:43;14.07;;;3.67;;
17153;SDS011;8692;52.164;7.558;2023-04-25T03:04:12;21.03;;;4.47;;
17153;SDS011;8692;52.164;7.558;2023-04-25T03:06:43;11.37;;;3.90;;
17153;SDS011;8692;52.164;7.558;2023-04-25T03:09:12;11.83;;;3.43;;
17153;SDS011;8692;52.164;7.558;2023-04-25T03:11:42;12.27;;;3.93;;
17153;SDS011;8692;52.164;7.558;2023-04-25T03:14:11;15.03;;;3.40;;
17153;SDS011;8692;52.164;7.558;2023-04-25T03:16:39;12.43;;;3.40;;
17153;SDS011;8692;52.164;7.558;2023-04-25T03:19:08;16.67;;;4.70;;
17153;SDS011;8692;52.164;7.558;2023-04-25T03:21:36;15.50;;;3.43;;
17153;SDS011;8692;52.164;7.558;2023-04-25T03:24:05;12.60;;;3.23;;
17153;SDS011;8692;52.164;7.558;2023-04-25T03:26:33;13.27;;;3.70;;
17153;SDS011;8692;52.164;7.558;2023-04-25T03:29:03;13.53;;;3.40;;
17153;SDS011;8692;52.164;7.558;2023-04-25T03:31:33;17.40;;;4.37;;
17153;SDS011;8692;52.164;7.558;2023-04-25T03:34:10;8.97;;;3.83;;
17153;SDS011;8692;52.164;7.558;2023-04-25T03:36:44;19.73;;;4.27;;
17153;SDS011;8692;52.164;7.558;2023-04-25T03:39:13;13.17;;;3.47;;
17153;SDS011;8692;52.164;7.558;2023-04-25T03:41:46;12.80;;;3.17;;
17153;SDS011;8692;52.164;7.558;2023-04-25T03:44:18;11.83;;;3.27;;
17153;SDS011;8692;52.164;7.558;2023-04-25T03:46:47;13.87;;;4.10;;
17153;SDS011;8692;52.164;7.558;2023-04-25T03:49:18;11.60;;;4.07;;
17153;SDS011;8692;52.164;7.558;2023-04-25T03:51:57;14.77;;;3.47;;
17153;SDS011;8692;52.164;7.558;2023-04-25T03:54:27;15.80;;;3.37;;
17153;SDS011;8692;52.164;7.558;2023-04-25T03:57:02;15.03;;;4.07;;
17153;SDS011;8692;52.164;7.558;2023-04-25T03:59:34;8.77;;;3.40;;
17153;SDS011;8692;52.164;7.558;2023-04-25T04:02:07;7.33;;;2.83;;
17153;SDS011;8692;52.164;7.558;2023-04-25T04:04:35;10.27;;;3.10;;
17153;SDS011;8692;52.164;7.558;2023-04-25T04:07:05;15.17;;;3.87;;
17153;SDS011;8692;52.164;7.558;2023-04-25T04:09:36;9.90;;;3.43;;
17153;SDS011;8692;52.164;7.558;2023-04-25T04:12:08;10.03;;;3.40;;
17153;SDS011;8692;52.164;7.558;2023-04-25T04:14:40;8.30;;;3.40;;
17153;SDS011;8692;52.164;7.558;2023-04-25T04:17:09;19.07;;;3.70;;
17153;SDS011;8692;52.164;7.558;2023-04-25T04:19:38;10.97;;;2.97;;
17153;SDS011;8692;52.164;7.558;2023-04-25T04:22:18;11.87;;;3.83;;
17153;SDS011;8692;52.164;7.558;2023-04-25T04:24:47;12.33;;;3.13;;
17153;SDS011;8692;52.164;7.558;2023-04-25T04:27:22;20.80;;;5.67;;
17153;SDS011;8692;52.164;7.558;2023-04-25T04:30:08;10.63;;;3.17;;
17153;SDS011;8692;52.164;7.558;2023-04-25T04:32:55;10.00;;;3.17;;
17153;SDS011;8692;52.164;7.558;2023-04-25T04:35:24;13.77;;;3.17;;
17153;SDS011;8692;52.164;7.558;2023-04-25T04:37:55;9.97;;;3.00;;
17153;SDS011;8692;52.164;7.558;2023-04-25T04:40:27;10.90;;;3.53;;
17153;SDS011;8692;52.164;7.558;2023-04-25T04:43:06;9.60;;;3.93;;
17153;SDS011;8692;52.164;7.558;2023-04-25T04:45:39;9.73;;;4.23;;
17153;SDS011;8692;52.164;7.558;2023-04-25T04:49:12;8.53;;;3.00;;
17153;SDS011;8692;52.164;7.558;2023-04-25T04:52:12;8.77;;;3.10;;
17153;SDS011;8692;52.164;7.558;2023-04-25T04:55:17;9.83;;;3.47;;
17153;SDS011;8692;52.164;7.558;2023-04-25T04:58:11;12.87;;;3.10;;
17153;SDS011;8692;52.164;7.558;2023-04-25T05:01:07;11.07;;;3.80;;
17153;SDS011;8692;52.164;7.558;2023-04-25T05:03:54;10.27;;;3.73;;
17153;SDS011;8692;52.164;7.558;2023-04-25T05:06:44;8.40;;;3.03;;
17153;SDS011;8692;52.164;7.558;2023-04-25T05:09:26;11.93;;;3.10;;
17153;SDS011;8692;52.164;7.558;2023-04-25T05:12:18;13.10;;;3.63;;
17153;SDS011;8692;52.164;7.558;2023-04-25T05:14:54;14.23;;;3.67;;
17153;SDS011;8692;52.164;7.558;2023-04-25T05:17:32;9.38;;;3.63;;
17153;SDS011;8692;52.164;7.558;2023-04-25T05:20:20;11.43;;;3.30;;
17153;SDS011;8692;52.164;7.558;2023-04-25T05:23:03;9.23;;;3.00;;
17153;SDS011;8692;52.164;7.558;2023-04-25T05:25:41;13.43;;;2.97;;
17153;SDS011;8692;52.164;7.558;2023-04-25T05:28:17;13.07;;;4.55;;
17153;SDS011;8692;52.164;7.558;2023-04-25T05:30:57;12.70;;;3.60;;
17153;SDS011;8692;52.164;7.558;2023-04-25T05:33:31;15.73;;;3.73;;
17153;SDS011;8692;52.164;7.558;2023-04-25T05:36:01;15.07;;;3.10;;
17153;SDS011;8692;52.164;7.558;2023-04-25T05:38:30;9.40;;;2.57;;
17153;SDS011;8692;52.164;7.558;2023-04-25T05:41:15;10.93;;;3.23;;
17153;SDS011;8692;52.164;7.558;2023-04-25T05:43:53;11.47;;;3.70;;
17153;SDS011;8692;52.164;7.558;2023-04-25T05:46:49;10.80;;;2.90;;
17153;SDS011;8692;52.164;7.558;2023-04-25T05:49:30;10.77;;;2.63;;
17153;SDS011;8692;52.164;7.558;2023-04-25T05:52:08;7.07;;;3.83;;
17153;SDS011;8692;52.164;7.558;2023-04-25T05:54:45;7.93;;;2.60;;
17153;SDS011;8692;52.164;7.558;2023-04-25T05:57:19;10.60;;;2.70;;
17153;SDS011;8692;52.164;7.558;2023-04-25T05:59:48;8.17;;;2.63;;
17153;SDS011;8692;52.164;7.558;2023-04-25T06:02:16;11.83;;;3.97;;
17153;SDS011;8692;52.164;7.558;2023-04-25T06:04:46;14.63;;;2.57;;
17153;SDS011;8692;52.164;7.558;2023-04-25T06:07:15;8.63;;;2.43;;
17153;SDS011;8692;52.164;7.558;2023-04-25T06:09:43;11.10;;;2.50;;
17153;SDS011;8692;52.164;7.558;2023-04-25T06:12:11;13.43;;;3.90;;
17153;SDS011;8692;52.164;7.558;2023-04-25T06:14:42;6.17;;;2.10;;
17153;SDS011;8692;52.164;7.558;2023-04-25T06:17:13;15.60;;;3.03;;
17153;SDS011;8692;52.164;7.558;2023-04-25T06:19:41;12.13;;;3.03;;
17153;SDS011;8692;52.164;7.558;2023-04-25T06:22:11;12.13;;;3.20;;
17153;SDS011;8692;52.164;7.558;2023-04-25T06:24:40;11.00;;;2.50;;
17153;SDS011;8692;52.164;7.558;2023-04-25T06:27:08;16.53;;;2.87;;
17153;SDS011;8692;52.164;7.558;2023-04-25T06:29:39;10.03;;;2.33;;
17153;SDS011;8692;52.164;7.558;2023-04-25T06:32:07;9.70;;;3.57;;
17153;SDS011;8692;52.164;7.558;2023-04-25T06:34:35;7.17;;;2.20;;
17153;SDS011;8692;52.164;7.558;2023-04-25T06:37:05;8.00;;;2.47;;
17153;SDS011;8692;52.164;7.558;2023-04-25T06:39:35;10.67;;;2.10;;
17153;SDS011;8692;52.164;7.558;2023-04-25T06:42:09;11.60;;;4.00;;
17153;SDS011;8692;52.164;7.558;2023-04-25T06:44:48;9.37;;;2.00;;
17153;SDS011;8692;52.164;7.558;2023-04-25T06:47:19;11.27;;;1.93;;
17153;SDS011;8692;52.164;7.558;2023-04-25T06:49:50;6.33;;;2.37;;
17153;SDS011;8692;52.164;7.558;2023-04-25T06:52:19;5.97;;;1.93;;
17153;SDS011;8692;52.164;7.558;2023-04-25T06:54:49;12.00;;;2.43;;
17153;SDS011;8692;52.164;7.558;2023-04-25T06:57:33;8.50;;;1.90;;
17153;SDS011;8692;52.164;7.558;2023-04-25T07:00:20;6.30;;;2.13;;
17153;SDS011;8692;52.164;7.558;2023-04-25T07:02:49;12.03;;;2.07;;
17153;SDS011;8692;52.164;7.558;2023-04-25T07:05:18;8.97;;;2.27;;
17153;SDS011;8692;52.164;7.558;2023-04-25T07:07:48;8.33;;;2.23;;
17153;SDS011;8692;52.164;7.558;2023-04-25T07:10:20;7.67;;;1.90;;
17153;SDS011;8692;52.164;7.558;2023-04-25T07:12:48;9.73;;;2.53;;
17153;SDS011;8692;52.164;7.558;2023-04-25T07:15:19;13.13;;;1.93;;
17153;SDS011;8692;52.164;7.558;2023-04-25T07:17:48;9.17;;;2.33;;
17153;SDS011;8692;52.164;7.558;2023-04-25T07:20:16;6.90;;;2.20;;
17153;SDS011;8692;52.164;7.558;2023-04-25T07:22:47;10.43;;;2.40;;
17153;SDS011;8692;52.164;7.558;2023-04-25T07:25:16;9.80;;;2.13;;
17153;SDS011;8692;52.164;7.558;2023-04-25T07:27:46;9.30;;;2.70;;
17153;SDS011;8692;52.164;7.558;2023-04-25T07:30:19;9.73;;;2.20;;
17153;SDS011;8692;52.164;7.558;2023-04-25T07:32:47;7.80;;;1.83;;
17153;SDS011;8692;52.164;7.558;2023-04-25T07:35:16;10.17;;;2.97;;
17153;SDS011;8692;52.164;7.558;2023-04-25T07:37:46;8.17;;;2.00;;
17153;SDS011;8692;52.164;7.558;2023-04-25T07:40:17;6.83;;;2.17;;
17153;SDS011;8692;52.164;7.558;2023-04-25T07:42:54;8.67;;;2.17;;
17153;SDS011;8692;52.164;7.558;2023-04-25T07:45:30;10.17;;;2.10;;
17153;SDS011;8692;52.164;7.558;2023-04-25T07:47:59;11.43;;;2.30;;
17153;SDS011;8692;52.164;7.558;2023-04-25T07:50:30;8.63;;;2.40;;
17153;SDS011;8692;52.164;7.558;2023-04-25T07:52:58;9.13;;;1.83;;
17153;SDS011;8692;52.164;7.558;2023-04-25T07:55:32;7.23;;;2.00;;
17153;SDS011;8692;52.164;7.558;2023-04-25T07:58:12;9.50;;;2.30;;
17153;SDS011;8692;52.164;7.558;2023-04-25T08:00:44;10.53;;;2.50;;
17153;SDS011;8692;52.164;7.558;2023-04-25T08:03:25;8.30;;;2.27;;
17153;SDS011;8692;52.164;7.558;2023-04-25T08:05:54;8.90;;;1.87;;
17153;SDS011;8692;52.164;7.558;2023-04-25T08:08:25;5.80;;;1.87;;
17153;SDS011;8692;52.164;7.558;2023-04-25T08:10:54;7.50;;;1.80;;
17153;SDS011;8692;52.164;7.558;2023-04-25T08:13:23;8.40;;;1.73;;
17153;SDS011;8692;52.164;7.558;2023-04-25T08:15:52;6.33;;;1.97;;
17153;SDS011;8692;52.164;7.558;2023-04-25T08:18:21;7.93;;;1.50;;
17153;SDS011;8692;52.164;7.558;2023-04-25T08:20:49;8.03;;;2.63;;
17153;SDS011;8692;52.164;7.558;2023-04-25T08:23:20;9.83;;;2.30;;
17153;SDS011;8692;52.164;7.558;2023-04-25T08:25:58;12.27;;;2.30;;
17153;SDS011;8692;52.164;7.558;2023-04-25T08:28:29;10.07;;;2.27;;
17153;SDS011;8692;52.164;7.558;2023-04-25T08:31:00;8.07;;;1.70;;
17153;SDS011;8692;52.164;7.558;2023-04-25T08:33:36;4.50;;;1.63;;
17153;SDS011;8692;52.164;7.558;2023-04-25T08:36:14;5.20;;;1.97;;
17153;SDS011;8692;52.164;7.558;2023-04-25T08:39:00;6.50;;;1.67;;
17153;SDS011;8692;52.164;7.558;2023-04-25T08:41:29;7.03;;;1.90;;
17153;SDS011;8692;52.164;7.558;2023-04-25T08:43:59;7.40;;;1.67;;
17153;SDS011;8692;52.164;7.558;2023-04-25T08:46:30;6.67;;;1.57;;
17153;SDS011;8692;52.164;7.558;2023-04-25T08:49:09;5.23;;;1.27;;
17153;SDS011;8692;52.164;7.558;2023-04-25T08:51:40;7.17;;;1.80;;
17153;SDS011;8692;52.164;7.558;2023-04-25T08:54:17;4.73;;;1.60;;
17153;SDS011;8692;52.164;7.558;2023-04-25T08:57:10;6.83;;;1.37;;
17153;SDS011;8692;52.164;7.558;2023-04-25T08:59:40;4.43;;;1.27;;
17153;SDS011;8692;52.164;7.558;2023-04-25T09:02:12;4.53;;;1.47;;
17153;SDS011;8692;52.164;7.558;2023-04-25T09:04:46;4.50;;;1.47;;
17153;SDS011;8692;52.164;7.558;2023-04-25T09:07:14;5.50;;;1.20;;
17153;SDS011;8692;52.164;7.558;2023-04-25T09:09:45;4.57;;;1.57;;
17153;SDS011;8692;52.164;7.558;2023-04-25T09:12:16;5.07;;;1.47;;
17153;SDS011;8692;52.164;7.558;2023-04-25T09:15:02;4.30;;;1.20;;
17153;SDS011;8692;52.164;7.558;2023-04-25T09:17:54;6.70;;;1.40;;
17153;SDS011;8692;52.164;7.558;2023-04-25T09:20:26;7.57;;;1.53;;
17153;SDS011;8692;52.164;7.558;2023-04-25T09:23:03;2.57;;;1.30;;
17153;SDS011;8692;52.164;7.558;2023-04-25T09:25:36;6.60;;;1.50;;
17153;SDS011;8692;52.164;7.558;2023-04-25T09:28:08;5.33;;;1.50;;
17153;SDS011;8692;52.164;7.558;2023-04-25T09:30:41;2.83;;;1.00;;
17153;SDS011;8692;52.164;7.558;2023-04-25T09:33:17;3.83;;;1.20;;
17153;SDS011;8692;52.164;7.558;2023-04-25T09:35:48;5.40;;;1.00;;
17153;SDS011;8692;52.164;7.558;2023-04-25T09:38:39;4.53;;;1.30;;
17153;SDS011;8692;52.164;7.558;2023-04-25T09:41:15;4.90;;;1.30;;
17153;SDS011;8692;52.164;7.558;2023-04-25T09:43:56;3.70;;;1.10;;
17153;SDS011;8692;52.164;7.558;2023-04-25T09:46:33;5.80;;;1.80;;
17153;SDS011;8692;52.164;7.558;2023-04-25T09:49:08;4.10;;;1.40;;
17153;SDS011;8692;52.164;7.558;2023-04-25T09:51:55;5.07;;;1.20;;
17153;SDS011;8692;52.164;7.558;2023-04-25T09:54:28;3.87;;;1.30;;
17153;SDS011;8692;52.164;7.558;2023-04-25T09:57:09;7.73;;;1.77;;
17153;SDS011;8692;52.164;7.558;2023-04-25T09:59:42;4.23;;;1.60;;
17153;SDS011;8692;52.164;7.558;2023-04-25T10:02:13;3.03;;;1.17;;
17153;SDS011;8692;52.164;7.558;2023-04-25T10:04:44;4.47;;;1.57;;
17153;SDS011;8692;52.164;7.558;2023-04-25T10:07:20;6.93;;;1.47;;
17153;SDS011;8692;52.164;7.558;2023-04-25T10:09:53;5.57;;;1.30;;
17153;SDS011;8692;52.164;7.558;2023-04-25T10:12:26;4.20;;;1.40;;
17153;SDS011;8692;52.164;7.558;2023-04-25T10:14:54;5.87;;;1.60;;
17153;SDS011;8692;52.164;7.558;2023-04-25T10:17:26;4.97;;;1.13;;
17153;SDS011;8692;52.164;7.558;2023-04-25T10:19:55;6.53;;;1.40;;
17153;SDS011;8692;52.164;7.558;2023-04-25T10:22:29;5.23;;;1.47;;
17153;SDS011;8692;52.164;7.558;2023-04-25T10:25:02;3.90;;;1.53;;
17153;SDS011;8692;52.164;7.558;2023-04-25T10:27:33;5.43;;;1.43;;
17153;SDS011;8692;52.164;7.558;2023-04-25T10:30:02;5.90;;;1.50;;
17153;SDS011;8692;52.164;7.558;2023-04-25T10:32:33;3.53;;;1.20;;
17153;SDS011;8692;52.164;7.558;2023-04-25T10:35:09;3.33;;;1.37;;
17153;SDS011;8692;52.164;7.558;2023-04-25T10:37:38;5.87;;;1.37;;
17153;SDS011;8692;52.164;7.558;2023-04-25T10:40:27;4.70;;;1.17;;
17153;SDS011;8692;52.164;7.558;2023-04-25T10:42:55;6.60;;;2.00;;
17153;SDS011;8692;52.164;7.558;2023-04-25T10:45:52;2.97;;;1.03;;
17153;SDS011;8692;52.164;7.558;2023-04-25T10:48:28;10.97;;;1.90;;
17153;SDS011;8692;52.164;7.558;2023-04-25T10:51:06;6.30;;;1.20;;
17153;SDS011;8692;52.164;7.558;2023-04-25T10:53:35;3.40;;;1.30;;
17153;SDS011;8692;52.164;7.558;2023-04-25T10:56:09;4.40;;;1.20;;
17153;SDS011;8692;52.164;7.558;2023-04-25T10:58:42;1.67;;;0.90;;
17153;SDS011;8692;52.164;7.558;2023-04-25T11:01:12;2.93;;;0.67;;
17153;SDS011;8692;52.164;7.558;2023-04-25T11:03:44;1.90;;;0.50;;
17153;SDS011;8692;52.164;7.558;2023-04-25T11:06:20;3.83;;;1.03;;
17153;SDS011;8692;52.164;7.558;2023-04-25T11:08:51;1.97;;;0.70;;
17153;SDS011;8692;52.164;7.558;2023-04-25T11:11:19;3.17;;;0.80;;
17153;SDS011;8692;52.164;7.558;2023-04-25T11:13:48;3.80;;;1.13;;
17153;SDS011;8692;52.164;7.558;2023-04-25T11:16:19;2.97;;;0.93;;
17153;SDS011;8692;52.164;7.558;2023-04-25T11:18:58;3.50;;;1.03;;
17153;SDS011;8692;52.164;7.558;2023-04-25T11:21:28;2.40;;;1.47;;
17153;SDS011;8692;52.164;7.558;2023-04-25T11:23:58;4.23;;;1.63;;
17153;SDS011;8692;52.164;7.558;2023-04-25T11:26:30;3.33;;;0.83;;
17153;SDS011;8692;52.164;7.558;2023-04-25T11:28:59;3.23;;;0.90;;
17153;SDS011;8692;52.164;7.558;2023-04-25T11:31:28;3.57;;;0.73;;
17153;SDS011;8692;52.164;7.558;2023-04-25T11:33:58;3.47;;;0.80;;
17153;SDS011;8692;52.164;7.558;2023-04-25T11:36:27;3.10;;;0.60;;
17153;SDS011;8692;52.164;7.558;2023-04-25T11:38:57;2.10;;;1.03;;
17153;SDS011;8692;52.164;7.558;2023-04-25T11:41:25;3.03;;;0.90;;
17153;SDS011;8692;52.164;7.558;2023-04-25T11:43:53;1.70;;;1.10;;
17153;SDS011;8692;52.164;7.558;2023-04-25T11:46:22;3.53;;;0.80;;
17153;SDS011;8692;52.164;7.558;2023-04-25T11:48:50;6.50;;;1.13;;
17153;SDS011;8692;52.164;7.558;2023-04-25T11:51:22;2.43;;;0.80;;
17153;SDS011;8692;52.164;7.558;2023-04-25T11:53:51;1.43;;;0.90;;
17153;SDS011;8692;52.164;7.558;2023-04-25T11:56:19;3.87;;;0.87;;
17153;SDS011;8692;52.164;7.558;2023-04-25T11:58:54;3.10;;;0.90;;
17153;SDS011;8692;52.164;7.558;2023-04-25T12:01:27;3.43;;;1.17;;
17153;SDS011;8692;52.164;7.558;2023-04-25T12:04:09;4.00;;;1.20;;
17153;SDS011;8692;52.164;7.558;2023-04-25T12:06:44;3.80;;;1.23;;
17153;SDS011;8692;52.164;7.558;2023-04-25T12:09:14;4.43;;;1.37;;
17153;SDS011;8692;52.164;7.558;2023-04-25T12:11:45;3.17;;;1.00;;
17153;SDS011;8692;52.164;7.558;2023-04-25T12:14:22;2.93;;;0.90;;
17153;SDS011;8692;52.164;7.558;2023-04-25T12:16:51;4.13;;;0.93;;
17153;SDS011;8692;52.164;7.558;2023-04-25T12:19:19;3.70;;;1.10;;
17153;SDS011;8692;52.164;7.558;2023-04-25T12:21:49;2.70;;;0.90;;
17153;SDS011;8692;52.164;7.558;2023-04-25T12:24:23;5.40;;;1.33;;
17153;SDS011;8692;52.164;7.558;2023-04-25T12:26:58;2.63;;;1.10;;
17153;SDS011;8692;52.164;7.558;2023-04-25T12:29:28;8.27;;;5.10;;
17153;SDS011;8692;52.164;7.558;2023-04-25T12:32:15;5.17;;;1.77;;
17153;SDS011;8692;52.164;7.558;2023-04-25T12:34:46;7.60;;;3.00;;
17153;SDS011;8692;52.164;7.558;2023-04-25T12:37:16;4.17;;;1.90;;
17153;SDS011;8692;52.164;7.558;2023-04-25T12:39:44;6.00;;;1.30;;
17153;SDS011;8692;52.164;7.558;2023-04-25T12:42:12;6.23;;;1.93;;
17153;SDS011;8692;52.164;7.558;2023-04-25T12:44:40;7.07;;;1.73;;
17153;SDS011;8692;52.164;7.558;2023-04-25T12:47:08;3.90;;;1.47;;
17153;SDS011;8692;52.164;7.558;2023-04-25T12:49:37;3.83;;;1.40;;
17153;SDS011;8692;52.164;7.558;2023-04-25T12:52:07;3.43;;;1.03;;
17153;SDS011;8692;52.164;7.558;2023-04-25T12:54:39;4.57;;;1.10;;
17153;SDS011;8692;52.164;7.558;2023-04-25T12:57:11;2.17;;;0.77;;
17153;SDS011;8692;52.164;7.558;2023-04-25T12:59:39;3.87;;;1.00;;
17153;SDS011;8692;52.164;7.558;2023-04-25T13:02:07;3.07;;;1.50;;
17153;SDS011;8692;52.164;7.558;2023-04-25T13:04:36;2.67;;;0.97;;
17153;SDS011;8692;52.164;7.558;2023-04-25T13:07:06;4.00;;;1.00;;
17153;SDS011;8692;52.164;7.558;2023-04-25T13:09:34;4.07;;;1.30;;
17153;SDS011;8692;52.164;7.558;2023-04-25T13:12:04;4.07;;;1.17;;
17153;SDS011;8692;52.164;7.558;2023-04-25T13:14:32;5.67;;;1.10;;
17153;SDS011;8692;52.164;7.558;2023-04-25T13:17:00;2.43;;;1.10;;
17153;SDS011;8692;52.164;7.558;2023-04-25T13:19:28;1.97;;;1.10;;
17153;SDS011;8692;52.164;7.558;2023-04-25T13:21:59;2.50;;;0.90;;
17153;SDS011;8692;52.164;7.558;2023-04-25T13:24:27;4.20;;;1.30;;
17153;SDS011;8692;52.164;7.558;2023-04-25T13:26:55;5.20;;;1.40;;
17153;SDS011;8692;52.164;7.558;2023-04-25T13:29:25;2.73;;;1.23;;
17153;SDS011;8692;52.164;7.558;2023-04-25T13:31:53;3.90;;;1.27;;
17153;SDS011;8692;52.164;7.558;2023-04-25T13:34:23;8.50;;;1.97;;
17153;SDS011;8692;52.164;7.558;2023-04-25T13:36:52;5.43;;;1.30;;
17153;SDS011;8692;52.164;7.558;2023-04-25T13:39:20;2.10;;;1.20;;
17153;SDS011;8692;52.164;7.558;2023-04-25T13:41:48;5.73;;;1.60;;
17153;SDS011;8692;52.164;7.558;2023-04-25T13:44:16;4.47;;;1.63;;
17153;SDS011;8692;52.164;7.558;2023-04-25T13:46:45;6.55;;;2.00;;
17153;SDS011;8692;52.164;7.558;2023-04-25T13:49:14;4.17;;;1.57;;
17153;SDS011;8692;52.164;7.558;2023-04-25T13:51:42;3.00;;;1.30;;
17153;SDS011;8692;52.164;7.558;2023-04-25T13:54:13;3.10;;;1.57;;
17153;SDS011;8692;52.164;7.558;2023-04-25T13:56:42;4.83;;;1.90;;
17153;SDS011;8692;52.164;7.558;2023-04-25T13:59:10;4.30;;;1.43;;
17153;SDS011;8692;52.164;7.558;2023-04-25T14:01:40;4.00;;;1.23;;
17153;SDS011;8692;52.164;7.558;2023-04-25T14:04:12;3.27;;;1.20;;
17153;SDS011;8692;52.164;7.558;2023-04-25T14:06:41;3.07;;;1.30;;
17153;SDS011;8692;52.164;7.558;2023-04-25T14:09:11;4.90;;;1.30;;
17153;SDS011;8692;52.164;7.558;2023-04-25T14:11:39;6.37;;;1.50;;
17153;SDS011;8692;52.164;7.558;2023-04-25T14:14:07;4.07;;;1.47;;
17153;SDS011;8692;52.164;7.558;2023-04-25T14:16:36;4.47;;;1.30;;
17153;SDS011;8692;52.164;7.558;2023-04-25T14:19:06;5.53;;;1.37;;
17153;SDS011;8692;52.164;7.558;2023-04-25T14:21:36;2.60;;;0.90;;
17153;SDS011;8692;52.164;7.558;2023-04-25T14:24:06;5.27;;;1.30;;
17153;SDS011;8692;52.164;7.558;2023-04-25T14:26:37;2.83;;;1.00;;
17153;SDS011;8692;52.164;7.558;2023-04-25T14:29:09;2.33;;;1.10;;
17153;SDS011;8692;52.164;7.558;2023-04-25T14:31:38;5.10;;;1.10;;
17153;SDS011;8692;52.164;7.558;2023-04-25T14:34:07;4.23;;;1.07;;
17153;SDS011;8692;52.164;7.558;2023-04-25T14:36:39;3.90;;;1.10;;
17153;SDS011;8692;52.164;7.558;2023-04-25T14:39:08;3.87;;;1.30;;
17153;SDS011;8692;52.164;7.558;2023-04-25T14:41:36;5.20;;;1.23;;
17153;SDS011;8692;52.164;7.558;2023-04-25T14:44:04;5.27;;;1.17;;
17153;SDS011;8692;52.164;7.558;2023-04-25T14:46:32;2.83;;;0.87;;
17153;SDS011;8692;52.164;7.558;2023-04-25T14:49:01;3.20;;;1.10;;
17153;SDS011;8692;52.164;7.558;2023-04-25T14:51:32;4.17;;;1.40;;
17153;SDS011;8692;52.164;7.558;2023-04-25T14:54:02;2.20;;;0.90;;
17153;SDS011;8692;52.164;7.558;2023-04-25T14:56:33;2.60;;;1.00;;
17153;SDS011;8692;52.164;7.558;2023-04-25T14:59:02;3.70;;;0.97;;
17153;SDS011;8692;52.164;7.558;2023-04-25T15:01:30;2.77;;;1.00;;
17153;SDS011;8692;52.164;7.558;2023-04-25T15:04:01;5.30;;;1.30;;
17153;SDS011;8692;52.164;7.558;2023-04-25T15:06:30;3.00;;;1.13;;
17153;SDS011;8692;52.164;7.558;2023-04-25T15:09:00;2.87;;;1.10;;
17153;SDS011;8692;52.164;7.558;2023-04-25T15:11:33;7.47;;;1.17;;
17153;SDS011;8692;52.164;7.558;2023-04-25T15:14:03;3.60;;;1.13;;
17153;SDS011;8692;52.164;7.558;2023-04-25T15:16:32;3.83;;;1.00;;
17153;SDS011;8692;52.164;7.558;2023-04-25T15:19:02;4.13;;;1.10;;
17153;SDS011;8692;52.164;7.558;2023-04-25T15:21:34;4.20;;;1.07;;
17153;SDS011;8692;52.164;7.558;2023-04-25T15:24:04;4.23;;;1.07;;
17153;SDS011;8692;52.164;7.558;2023-04-25T15:26:32;2.27;;;1.10;;
17153;SDS011;8692;52.164;7.558;2023-04-25T15:29:01;3.80;;;0.90;;